Time;durP1;ratioP1;P1;durP2;ratioP2;P2;SDS_P1;SDS_P2;PMS_P1;PMS_P2;Temp;Humidity;BMP_temperature;BMP_pressure;BME280_temperature;BME280_humidity;BME280_pressure;Samples;Min_cycle;Max_cycle;Signal;HPM_P1;HPM_P2
2024/04/24 00:00:02;;;;;;;16.20;10.40;;;2.30;99.90;;;;;;5456088;26;20286;-61
2024/04/24 00:02:27;;;;;;;19.77;10.93;;;2.30;99.90;;;;;;5462736;26;20759;-62
2024/04/24 00:04:53;;;;;;;17.23;10.80;;;2.30;99.90;;;;;;5459269;26;20513;-62
2024/04/24 00:07:19;;;;;;;15.23;9.87;;;2.30;99.90;;;;;;5452032;26;20239;-62
2024/04/24 00:09:44;;;;;;;12.47;8.80;;;2.30;99.90;;;;;;5456268;26;20223;-62
2024/04/24 00:12:10;;;;;;;13.30;9.50;;;2.20;99.90;;;;;;5448133;26;20342;-61
2024/04/24 00:14:35;;;;;;;14.00;9.53;;;2.10;99.90;;;;;;5450313;26;20281;-62
2024/04/24 00:17:01;;;;;;;14.80;9.60;;;2.10;99.90;;;;;;5421150;26;20268;-62
2024/04/24 00:19:26;;;;;;;14.93;10.10;;;2.00;99.90;;;;;;5452393;26;20855;-62
2024/04/24 00:21:52;;;;;;;15.70;9.67;;;1.90;99.90;;;;;;5450896;26;20212;-62
2024/04/24 00:24:18;;;;;;;17.23;9.80;;;1.90;99.90;;;;;;5449888;26;20231;-62
2024/04/24 00:26:43;;;;;;;17.10;11.10;;;1.90;99.90;;;;;;5453137;26;20227;-62
2024/04/24 00:29:09;;;;;;;16.00;9.97;;;1.90;99.90;;;;;;5454690;26;20320;-62
2024/04/24 00:31:34;;;;;;;21.57;11.30;;;2.00;99.90;;;;;;5448950;26;20224;-62
2024/04/24 00:34:00;;;;;;;15.80;10.70;;;2.00;99.90;;;;;;5450858;26;20230;-61
2024/04/24 00:36:26;;;;;;;17.17;10.37;;;1.90;99.90;;;;;;5452658;26;20260;-62
2024/04/24 00:38:55;;;;;;;19.10;11.90;;;1.90;99.90;;;;;;5450128;26;20240;-62
2024/04/24 00:41:21;;;;;;;17.17;10.43;;;1.90;99.90;;;;;;5448102;26;20503;-62
2024/04/24 00:43:47;;;;;;;16.40;10.10;;;1.80;99.90;;;;;;5456678;26;20465;-62
2024/04/24 00:46:15;;;;;;;14.43;9.10;;;1.80;99.90;;;;;;5445003;26;20273;-62
2024/04/24 00:48:42;;;;;;;17.00;10.60;;;1.70;99.90;;;;;;5455377;26;20845;-62
2024/04/24 00:51:09;;;;;;;15.40;10.13;;;1.70;99.90;;;;;;5451998;26;20512;-62
2024/04/24 00:53:35;;;;;;;16.50;10.60;;;1.60;99.90;;;;;;5451614;26;20469;-61
2024/04/24 00:56:05;;;;;;;21.80;10.70;;;1.60;99.90;;;;;;5458184;26;20465;-62
2024/04/24 00:58:32;;;;;;;15.70;9.80;;;1.50;99.90;;;;;;5445860;26;20448;-62
2024/04/24 01:00:59;;;;;;;15.63;9.90;;;1.50;99.90;;;;;;5456032;26;20433;-62
2024/04/24 01:03:25;;;;;;;16.90;10.47;;;1.50;99.90;;;;;;5415985;26;20453;-62
2024/04/24 01:05:50;;;;;;;21.73;10.00;;;1.40;99.90;;;;;;5446011;26;20509;-62
2024/04/24 01:08:16;;;;;;;15.90;10.10;;;1.40;99.90;;;;;;5443772;26;21039;-62
2024/04/24 01:10:42;;;;;;;21.90;11.77;;;1.40;99.90;;;;;;5449038;26;20223;-62
2024/04/24 01:13:07;;;;;;;16.13;10.33;;;1.40;99.90;;;;;;5452681;26;20729;-62
2024/04/24 01:15:36;;;;;;;19.20;10.60;;;1.30;99.90;;;;;;5449526;26;20347;-62
2024/04/24 01:18:04;;;;;;;18.70;10.77;;;1.30;99.90;;;;;;5445277;26;20224;-61
2024/04/24 01:20:31;;;;;;;20.80;11.13;;;1.30;99.90;;;;;;5448704;26;20522;-62
2024/04/24 01:23:08;;;;;;;16.17;10.23;;;1.20;99.90;;;;;;5452847;26;20532;-61
2024/04/24 01:26:07;;;;;;;17.87;10.17;;;1.20;99.90;;;;;;5452701;26;20472;-62
2024/04/24 01:28:33;;;;;;;17.27;10.50;;;1.20;99.90;;;;;;5459430;26;20465;-62
2024/04/24 01:31:02;;;;;;;16.20;10.27;;;1.20;99.90;;;;;;5450849;26;20520;-62
2024/04/24 01:33:28;;;;;;;14.23;9.20;;;1.20;99.90;;;;;;5454156;26;20262;-62
2024/04/24 01:35:53;;;;;;;17.03;10.30;;;1.20;99.90;;;;;;5451013;26;21100;-62
2024/04/24 01:38:19;;;;;;;17.43;10.50;;;1.10;99.90;;;;;;5452623;26;23714;-62
2024/04/24 01:40:45;;;;;;;16.63;10.77;;;1.10;99.90;;;;;;5457968;26;20228;-62
2024/04/24 01:43:12;;;;;;;17.20;10.90;;;1.10;99.90;;;;;;5448989;26;20705;-62
2024/04/24 01:45:41;;;;;;;15.20;10.03;;;1.00;99.90;;;;;;5471394;26;20219;-62
2024/04/24 01:48:06;;;;;;;19.10;10.87;;;1.00;99.90;;;;;;5447657;26;21057;-61
2024/04/24 01:50:32;;;;;;;19.33;10.83;;;1.00;99.90;;;;;;5456057;26;20443;-62
2024/04/24 01:52:58;;;;;;;14.57;9.37;;;1.00;99.90;;;;;;5466207;26;20226;-62
2024/04/24 01:55:23;;;;;;;16.83;9.97;;;0.90;99.90;;;;;;5448256;26;20976;-62
2024/04/24 01:57:49;;;;;;;17.47;11.07;;;0.90;99.90;;;;;;5452726;26;20228;-62
2024/04/24 02:00:14;;;;;;;15.47;9.60;;;0.90;99.90;;;;;;5449726;26;20222;-62
2024/04/24 02:02:40;;;;;;;15.63;9.77;;;0.90;99.90;;;;;;5448175;26;20223;-62
2024/04/24 02:05:06;;;;;;;17.53;9.93;;;0.90;99.90;;;;;;5441302;26;20251;-62
2024/04/24 02:07:31;;;;;;;16.97;10.43;;;0.90;99.90;;;;;;5450534;26;20234;-62
2024/04/24 02:09:57;;;;;;;16.53;10.20;;;0.90;99.90;;;;;;5446609;26;20618;-61
2024/04/24 02:12:22;;;;;;;20.53;9.60;;;0.90;99.90;;;;;;5417386;26;20428;-63
2024/04/24 02:14:48;;;;;;;16.60;10.90;;;0.80;99.90;;;;;;5418190;26;20677;-62
2024/04/24 02:17:13;;;;;;;17.80;10.43;;;0.80;99.90;;;;;;5452713;26;20227;-62
2024/04/24 02:19:41;;;;;;;20.53;11.67;;;0.90;99.90;;;;;;5445596;26;20266;-62
2024/04/24 02:22:06;;;;;;;17.33;10.70;;;0.90;99.90;;;;;;5448122;26;20224;-61
2024/04/24 02:27:21;;;;;;;17.90;11.03;;;0.90;99.90;;;;;;5413161;26;20232;-62
2024/04/24 02:29:46;;;;;;;17.27;11.17;;;0.80;99.90;;;;;;5448198;26;20484;-62
2024/04/24 02:32:12;;;;;;;19.17;11.23;;;0.80;99.90;;;;;;5447154;26;20238;-62
2024/04/24 02:34:37;;;;;;;21.27;10.73;;;0.80;99.90;;;;;;5452683;26;20576;-61
2024/04/24 02:37:04;;;;;;;15.70;10.60;;;0.80;99.90;;;;;;5449696;26;20285;-61
2024/04/24 02:39:29;;;;;;;19.07;11.57;;;0.80;99.90;;;;;;5449654;26;20219;-62
2024/04/24 02:41:55;;;;;;;19.00;10.70;;;0.80;99.90;;;;;;5418382;26;20525;-62
2024/04/24 02:44:20;;;;;;;20.07;11.83;;;0.80;99.90;;;;;;5454670;26;20282;-62
2024/04/24 02:46:46;;;;;;;17.53;10.20;;;0.70;99.90;;;;;;5451898;26;20224;-62
2024/04/24 02:49:11;;;;;;;18.87;10.83;;;0.70;99.90;;;;;;5454180;26;20726;-62
2024/04/24 02:51:37;;;;;;;14.27;9.70;;;0.70;99.90;;;;;;5449168;26;20239;-62
2024/04/24 02:54:03;;;;;;;22.47;10.27;;;0.80;99.90;;;;;;5452672;26;20335;-62
2024/04/24 02:56:28;;;;;;;18.40;11.00;;;0.80;99.90;;;;;;5447314;26;20969;-60
2024/04/24 02:58:54;;;;;;;22.57;11.83;;;0.80;99.90;;;;;;5451522;26;20259;-62
2024/04/24 03:01:19;;;;;;;15.90;10.47;;;0.80;99.90;;;;;;5452082;26;20625;-61
2024/04/24 03:03:45;;;;;;;16.03;10.57;;;0.80;99.90;;;;;;5451002;26;20220;-61
2024/04/24 03:06:10;;;;;;;15.97;9.87;;;0.80;99.90;;;;;;5449505;26;20235;-61
2024/04/24 03:08:36;;;;;;;18.93;11.00;;;0.80;99.90;;;;;;5445667;26;20230;-61
2024/04/24 03:11:02;;;;;;;16.57;10.57;;;0.80;99.90;;;;;;5436855;26;20222;-62
2024/04/24 03:13:27;;;;;;;18.77;11.20;;;0.80;99.90;;;;;;5448106;26;21179;-62
2024/04/24 03:15:53;;;;;;;17.07;10.53;;;0.80;99.90;;;;;;5448459;26;20234;-62
2024/04/24 03:18:18;;;;;;;17.70;11.50;;;0.80;99.90;;;;;;5446874;26;21774;-61
2024/04/24 03:20:44;;;;;;;16.53;10.50;;;0.80;99.90;;;;;;5448608;26;20232;-62
2024/04/24 03:23:10;;;;;;;20.13;11.60;;;0.80;99.90;;;;;;5447435;26;20273;-60
2024/04/24 03:25:35;;;;;;;19.53;11.93;;;0.80;99.90;;;;;;5446939;26;20269;-61
2024/04/24 03:28:01;;;;;;;22.00;12.43;;;0.80;99.90;;;;;;5444536;26;20279;-61
2024/04/24 03:30:27;;;;;;;17.17;10.33;;;0.80;99.90;;;;;;5420148;26;20245;-61
2024/04/24 03:32:52;;;;;;;19.73;11.53;;;0.80;99.90;;;;;;5441525;26;20231;-61
2024/04/24 03:35:18;;;;;;;20.60;11.47;;;0.80;99.90;;;;;;5454298;26;20223;-61
2024/04/24 03:37:43;;;;;;;19.30;12.07;;;0.80;99.90;;;;;;5451221;26;20572;-61
2024/04/24 03:40:09;;;;;;;19.43;11.30;;;0.80;99.90;;;;;;5467567;26;20331;-61
2024/04/24 03:42:35;;;;;;;19.03;11.90;;;0.80;99.90;;;;;;5449587;26;20224;-62
2024/04/24 03:45:00;;;;;;;18.40;11.67;;;0.80;99.90;;;;;;5462217;26;20504;-62
2024/04/24 03:47:26;;;;;;;26.63;11.80;;;0.80;99.90;;;;;;5441674;26;20683;-62
2024/04/24 03:49:52;;;;;;;18.60;11.47;;;0.80;99.90;;;;;;5458184;26;20214;-61
2024/04/24 03:52:19;;;;;;;18.53;10.70;;;0.90;99.90;;;;;;5448245;26;20328;-61
2024/04/24 03:54:45;;;;;;;18.23;11.20;;;0.90;99.90;;;;;;5455442;26;20515;-61
2024/04/24 03:57:10;;;;;;;14.70;10.30;;;0.80;99.90;;;;;;5432981;26;20464;-61
2024/04/24 03:59:36;;;;;;;16.93;11.13;;;0.90;99.90;;;;;;5448756;26;20231;-60
2024/04/24 04:02:01;;;;;;;18.40;11.50;;;0.90;99.90;;;;;;5448297;26;20282;-60
2024/04/24 04:04:27;;;;;;;17.67;10.97;;;0.90;99.90;;;;;;5443161;26;20239;-61
2024/04/24 04:06:53;;;;;;;16.60;10.40;;;0.90;99.90;;;;;;5444509;26;20621;-60
2024/04/24 04:09:18;;;;;;;17.13;11.20;;;0.90;99.90;;;;;;5446362;26;20319;-61
2024/04/24 04:11:44;;;;;;;20.23;11.27;;;0.90;99.90;;;;;;5448052;26;20226;-62
2024/04/24 04:14:09;;;;;;;22.10;12.60;;;0.90;99.90;;;;;;5417096;26;20352;-63
2024/04/24 04:16:35;;;;;;;20.97;10.00;;;0.90;99.90;;;;;;5454146;26;20231;-62
2024/04/24 04:19:00;;;;;;;15.97;10.47;;;0.90;99.90;;;;;;5448739;26;20223;-63
2024/04/24 04:21:26;;;;;;;18.00;10.83;;;0.90;99.90;;;;;;5456427;26;20753;-62
2024/04/24 04:23:52;;;;;;;19.37;10.80;;;0.90;99.90;;;;;;5463238;26;20337;-61
2024/04/24 04:26:17;;;;;;;20.10;11.40;;;0.90;99.90;;;;;;5457754;26;21053;-62
2024/04/24 04:28:43;;;;;;;15.70;10.07;;;0.90;99.90;;;;;;5471246;26;20222;-61
2024/04/24 04:31:08;;;;;;;21.70;10.97;;;0.90;99.90;;;;;;5444342;26;20668;-61
2024/04/24 04:33:34;;;;;;;23.30;11.83;;;0.90;99.90;;;;;;5445116;26;20228;-63
2024/04/24 04:36:05;;;;;;;20.57;11.67;;;0.90;99.90;;;;;;5454527;26;20243;-62
2024/04/24 04:38:34;;;;;;;18.80;10.43;;;0.90;99.90;;;;;;5455190;26;20309;-62
2024/04/24 04:40:59;;;;;;;15.67;10.53;;;0.90;99.90;;;;;;5456237;26;21034;-63
2024/04/24 04:43:25;;;;;;;16.93;10.17;;;0.90;99.90;;;;;;5453479;26;20513;-62
2024/04/24 04:45:50;;;;;;;21.87;11.97;;;1.00;99.90;;;;;;5456618;26;20298;-63
2024/04/24 04:48:16;;;;;;;17.53;11.00;;;1.00;99.90;;;;;;5458477;26;20223;-63
2024/04/24 04:50:42;;;;;;;18.67;11.50;;;0.90;99.90;;;;;;5419405;26;20280;-62
2024/04/24 04:53:08;;;;;;;20.80;12.20;;;1.00;99.90;;;;;;5452753;26;20798;-62
2024/04/24 04:55:33;;;;;;;18.80;10.90;;;1.00;99.90;;;;;;5450458;26;20461;-62
2024/04/24 04:58:00;;;;;;;24.77;10.77;;;1.00;99.90;;;;;;5456004;26;20871;-62
2024/04/24 05:00:26;;;;;;;18.47;11.47;;;1.00;99.90;;;;;;5426357;26;20707;-63
2024/04/24 05:02:52;;;;;;;29.57;12.37;;;1.00;99.90;;;;;;5438145;26;20450;-62
2024/04/24 05:05:18;;;;;;;22.03;13.03;;;1.00;99.90;;;;;;5457737;26;20710;-63
2024/04/24 05:07:44;;;;;;;24.70;14.13;;;1.00;99.90;;;;;;5458411;26;20342;-62
2024/04/24 05:10:10;;;;;;;20.30;12.30;;;1.10;99.90;;;;;;5423555;26;20807;-62
2024/04/24 05:12:35;;;;;;;19.60;12.40;;;1.10;99.90;;;;;;5424076;26;20239;-63
2024/04/24 05:15:02;;;;;;;23.07;12.50;;;1.10;99.90;;;;;;5424503;26;20702;-63
2024/04/24 05:17:28;;;;;;;29.73;13.40;;;1.20;99.90;;;;;;5454623;26;20216;-63
2024/04/24 05:19:53;;;;;;;24.30;14.33;;;1.20;99.90;;;;;;5451185;26;20595;-63
2024/04/24 05:22:19;;;;;;;23.73;14.97;;;1.30;99.90;;;;;;5465527;26;20665;-62
2024/04/24 05:24:45;;;;;;;19.40;12.67;;;1.30;99.90;;;;;;5450290;26;20384;-63
2024/04/24 05:29:54;;;;;;;27.67;13.00;;;1.30;99.90;;;;;;5457601;26;22622;-62
2024/04/24 05:32:20;;;;;;;23.20;13.83;;;1.40;99.90;;;;;;5456925;26;20452;-62
2024/04/24 05:34:45;;;;;;;20.20;11.83;;;1.40;99.90;;;;;;5447341;26;20863;-62
2024/04/24 05:37:11;;;;;;;20.80;12.23;;;1.40;99.90;;;;;;5453804;26;20228;-63
2024/04/24 05:39:37;;;;;;;22.77;12.67;;;1.40;99.90;;;;;;5463741;26;20744;-62
2024/04/24 05:42:02;;;;;;;20.37;12.57;;;1.50;99.90;;;;;;5451801;26;20551;-61
2024/04/24 05:44:33;;;;;;;21.07;11.97;;;1.50;99.90;;;;;;5461716;26;20223;-62
2024/04/24 05:47:00;;;;;;;19.90;12.20;;;1.50;99.90;;;;;;5449216;26;20274;-63
2024/04/24 05:49:26;;;;;;;27.63;12.77;;;1.60;99.90;;;;;;5445448;26;22675;-62
2024/04/24 05:51:51;;;;;;;27.47;13.30;;;1.60;99.90;;;;;;5453180;26;20468;-63
2024/04/24 05:54:17;;;;;;;19.60;12.80;;;1.70;99.90;;;;;;5452082;26;20218;-62
2024/04/24 05:56:43;;;;;;;22.40;13.73;;;1.70;99.90;;;;;;5451508;26;20223;-63
2024/04/24 05:59:09;;;;;;;18.87;11.87;;;1.70;99.90;;;;;;5460941;26;20220;-62
2024/04/24 06:01:34;;;;;;;24.00;14.37;;;1.70;99.90;;;;;;5455389;26;20737;-63
2024/04/24 06:04:00;;;;;;;22.40;13.80;;;1.80;99.90;;;;;;5435427;26;20531;-62
2024/04/24 06:06:25;;;;;;;23.83;14.87;;;1.80;99.90;;;;;;5458255;26;20232;-62
2024/04/24 06:08:51;;;;;;;19.47;13.03;;;1.80;99.90;;;;;;5423759;26;20228;-62
2024/04/24 06:11:17;;;;;;;22.77;12.37;;;1.80;99.90;;;;;;5447763;26;20266;-63
2024/04/24 06:13:42;;;;;;;20.57;12.40;;;1.80;99.90;;;;;;5440814;26;20232;-63
2024/04/24 06:16:08;;;;;;;20.97;13.07;;;1.80;99.90;;;;;;5458615;26;20321;-62
2024/04/24 06:18:33;;;;;;;18.80;12.30;;;1.90;99.90;;;;;;5439555;26;20238;-63
2024/04/24 06:20:59;;;;;;;19.50;11.33;;;2.00;99.90;;;;;;5468209;26;20793;-62
2024/04/24 06:23:24;;;;;;;18.00;11.67;;;2.10;99.90;;;;;;5453089;26;20278;-62
2024/04/24 06:25:50;;;;;;;19.80;12.20;;;2.20;99.90;;;;;;5462416;26;20274;-62
2024/04/24 06:28:16;;;;;;;14.50;9.07;;;2.40;99.90;;;;;;5465537;26;20316;-63
2024/04/24 06:30:42;;;;;;;15.23;8.63;;;2.60;99.90;;;;;;5461740;26;20880;-63
2024/04/24 06:33:08;;;;;;;14.00;8.97;;;2.90;99.90;;;;;;5459691;26;20278;-63
2024/04/24 06:35:34;;;;;;;13.57;9.00;;;3.10;99.90;;;;;;5449880;26;20455;-62
2024/04/24 06:38:00;;;;;;;11.63;7.80;;;3.30;98.60;;;;;;5425641;26;20262;-62
2024/04/24 06:40:25;;;;;;;12.77;8.07;;;3.50;95.00;;;;;;5451142;26;20456;-59
2024/04/24 06:42:52;;;;;;;12.27;8.43;;;3.70;89.50;;;;;;5455626;26;20216;-59
2024/04/24 06:45:17;;;;;;;14.10;8.23;;;3.80;84.20;;;;;;5447032;26;20254;-62
2024/04/24 06:47:43;;;;;;;20.37;9.27;;;3.90;79.30;;;;;;5452157;26;21438;-62
2024/04/24 06:50:09;;;;;;;10.87;7.37;;;4.00;78.40;;;;;;5455617;26;20223;-61
2024/04/24 06:52:34;;;;;;;17.97;7.77;;;4.20;75.60;;;;;;5473265;26;20316;-61
2024/04/24 06:55:01;;;;;;;11.20;7.70;;;4.30;72.10;;;;;;5460060;26;20290;-61
2024/04/24 06:57:27;;;;;;;12.10;7.97;;;4.50;70.80;;;;;;5451705;26;20267;-61
2024/04/24 06:59:52;;;;;;;12.83;7.27;;;4.60;69.00;;;;;;5454911;26;20456;-63
2024/04/24 07:02:18;;;;;;;12.80;7.00;;;4.70;67.60;;;;;;5432269;26;20453;-63
2024/04/24 07:04:43;;;;;;;11.03;7.40;;;4.80;66.20;;;;;;5445889;26;20700;-62
2024/04/24 07:07:09;;;;;;;12.97;7.83;;;4.90;65.70;;;;;;5457180;26;20239;-63
2024/04/24 07:09:35;;;;;;;8.60;7.00;;;5.00;66.90;;;;;;5451437;26;20269;-62
2024/04/24 07:12:01;;;;;;;10.67;6.43;;;5.10;64.50;;;;;;5432499;26;20261;-62
2024/04/24 07:14:26;;;;;;;9.30;6.80;;;5.30;63.60;;;;;;5432687;26;20258;-62
2024/04/24 07:16:52;;;;;;;16.97;7.70;;;5.30;62.40;;;;;;5424057;26;20588;-62
2024/04/24 07:19:17;;;;;;;15.00;7.57;;;5.40;61.00;;;;;;5452756;26;20237;-62
2024/04/24 07:21:43;;;;;;;11.60;6.80;;;5.40;60.50;;;;;;5430216;26;20235;-61
2024/04/24 07:24:08;;;;;;;9.37;6.30;;;5.40;61.80;;;;;;5457280;26;20725;-61
2024/04/24 07:26:34;;;;;;;11.87;7.23;;;5.50;58.40;;;;;;5459399;26;20282;-62
2024/04/24 07:29:00;;;;;;;9.00;6.80;;;5.50;56.60;;;;;;5470531;26;20262;-62
2024/04/24 07:31:25;;;;;;;9.47;6.50;;;5.50;56.70;;;;;;5455704;26;20230;-61
2024/04/24 07:33:51;;;;;;;11.13;7.60;;;5.60;55.90;;;;;;5455470;26;20223;-62
2024/04/24 07:36:16;;;;;;;9.97;6.93;;;5.60;54.20;;;;;;5463072;26;20249;-61
2024/04/24 07:38:43;;;;;;;10.70;7.10;;;5.60;53.10;;;;;;5473558;26;20215;-61
2024/04/24 07:41:08;;;;;;;14.07;8.43;;;5.80;53.50;;;;;;5453373;26;20227;-61
2024/04/24 07:43:34;;;;;;;10.93;7.30;;;5.90;53.60;;;;;;5423523;26;20592;-62
2024/04/24 07:46:00;;;;;;;12.03;6.13;;;6.10;52.70;;;;;;5462589;26;21577;-62
2024/04/24 07:48:26;;;;;;;10.80;6.40;;;6.30;53.10;;;;;;5455440;26;20230;-62
2024/04/24 07:50:52;;;;;;;10.07;6.43;;;6.40;52.40;;;;;;5469773;26;20507;-61
2024/04/24 07:53:17;;;;;;;11.67;7.60;;;6.40;51.60;;;;;;5463315;26;20220;-61
2024/04/24 07:55:43;;;;;;;10.53;7.63;;;6.40;51.50;;;;;;5454757;26;20706;-62
2024/04/24 07:58:09;;;;;;;8.37;6.57;;;6.40;50.70;;;;;;5476045;26;20640;-62
2024/04/24 08:00:34;;;;;;;9.33;6.97;;;6.30;50.80;;;;;;5444704;26;21227;-62
2024/04/24 08:03:01;;;;;;;9.90;7.20;;;6.20;50.60;;;;;;5422931;26;20226;-62
2024/04/24 08:05:27;;;;;;;12.00;6.80;;;6.10;50.80;;;;;;5448977;26;20227;-62
2024/04/24 08:07:53;;;;;;;9.77;7.50;;;6.00;49.60;;;;;;5420465;26;20449;-62
2024/04/24 08:10:18;;;;;;;10.47;8.00;;;6.00;50.30;;;;;;5457648;26;20449;-61
2024/04/24 08:12:44;;;;;;;12.03;6.97;;;6.00;50.50;;;;;;5447127;26;20297;-62
2024/04/24 08:15:09;;;;;;;11.83;6.80;;;5.90;51.00;;;;;;5450813;26;20314;-61
2024/04/24 08:17:35;;;;;;;10.30;6.70;;;5.90;50.50;;;;;;5419699;26;20242;-62
2024/04/24 08:20:02;;;;;;;10.77;6.57;;;5.90;51.70;;;;;;5452532;26;20226;-62
2024/04/24 08:22:27;;;;;;;8.33;5.53;;;6.10;50.90;;;;;;5458927;26;20271;-62
2024/04/24 08:24:53;;;;;;;8.83;5.97;;;6.10;50.40;;;;;;5443127;26;20463;-62
2024/04/24 08:27:19;;;;;;;14.67;6.30;;;6.20;49.80;;;;;;5453228;26;20768;-62
2024/04/24 08:29:44;;;;;;;7.20;5.47;;;6.30;50.50;;;;;;5460741;26;21056;-62
2024/04/24 08:32:10;;;;;;;7.77;5.93;;;6.30;50.00;;;;;;5455774;26;20888;-61
2024/04/24 08:34:36;;;;;;;9.73;5.53;;;6.30;50.20;;;;;;5449997;26;20232;-60
2024/04/24 08:37:01;;;;;;;6.13;4.87;;;6.30;50.20;;;;;;5461629;26;20227;-60
2024/04/24 08:39:27;;;;;;;10.23;5.40;;;6.20;49.60;;;;;;5424609;26;20527;-60
2024/04/24 08:41:55;;;;;;;7.70;5.77;;;6.20;48.80;;;;;;5451465;26;20223;-61
2024/04/24 08:44:24;;;;;;;7.80;5.80;;;6.10;48.60;;;;;;5461076;26;20230;-60
2024/04/24 08:46:51;;;;;;;8.40;5.70;;;6.10;49.00;;;;;;5449639;26;20473;-61
2024/04/24 08:49:18;;;;;;;11.90;6.30;;;6.20;48.80;;;;;;5459526;26;20547;-61
2024/04/24 08:51:46;;;;;;;8.57;5.40;;;6.20;48.80;;;;;;5448063;26;20512;-60
2024/04/24 08:54:22;;;;;;;6.30;4.90;;;6.30;49.30;;;;;;5455371;26;20444;-61
2024/04/24 08:57:00;;;;;;;8.17;5.53;;;6.40;49.90;;;;;;5431981;26;21057;-62
2024/04/24 08:59:31;;;;;;;10.53;6.80;;;6.60;49.30;;;;;;5471446;26;20805;-61
2024/04/24 09:02:00;;;;;;;7.53;4.50;;;6.70;49.30;;;;;;5461364;26;20524;-61
2024/04/24 09:04:27;;;;;;;11.43;5.07;;;6.70;49.50;;;;;;5450564;26;20502;-61
2024/04/24 09:06:53;;;;;;;11.17;5.53;;;6.80;49.30;;;;;;5468463;26;20456;-61
2024/04/24 09:09:20;;;;;;;10.30;5.50;;;6.70;48.60;;;;;;5448268;26;20452;-61
2024/04/24 09:11:46;;;;;;;9.30;5.70;;;6.60;48.50;;;;;;5457883;26;20275;-61
2024/04/24 09:14:15;;;;;;;8.63;5.73;;;6.50;48.70;;;;;;5459206;26;20535;-60
2024/04/24 09:16:42;;;;;;;7.77;5.30;;;6.30;48.70;;;;;;5452120;26;20473;-61
2024/04/24 09:19:07;;;;;;;8.13;5.57;;;6.30;49.20;;;;;;5423543;26;20571;-61
2024/04/24 09:21:33;;;;;;;9.30;6.13;;;6.20;49.30;;;;;;5425729;26;20461;-61
2024/04/24 09:23:59;;;;;;;20.03;8.80;;;6.20;49.60;;;;;;5454566;26;20227;-61
2024/04/24 09:26:25;;;;;;;16.17;9.33;;;6.10;49.80;;;;;;5464636;26;20292;-61
2024/04/24 09:28:50;;;;;;;21.57;11.07;;;6.10;49.10;;;;;;5467244;26;20873;-61
2024/04/24 09:31:17;;;;;;;24.20;11.00;;;6.10;49.00;;;;;;5451812;26;21278;-61
2024/04/24 09:33:42;;;;;;;25.33;11.00;;;6.10;49.00;;;;;;5463483;26;20228;-61
2024/04/24 09:36:08;;;;;;;10.33;6.23;;;6.20;49.30;;;;;;5460799;26;20531;-61
2024/04/24 09:38:34;;;;;;;9.37;6.20;;;6.30;49.30;;;;;;5457872;26;20726;-61
2024/04/24 09:41:03;;;;;;;6.60;5.37;;;6.50;48.80;;;;;;5460146;26;20460;-57
2024/04/24 09:43:29;;;;;;;9.87;5.70;;;6.60;48.60;;;;;;5449695;26;20282;-57
2024/04/24 09:45:55;;;;;;;9.07;5.43;;;6.70;48.10;;;;;;5457266;26;21064;-57
2024/04/24 09:48:22;;;;;;;6.27;5.17;;;6.70;47.50;;;;;;5446475;26;20511;-61
2024/04/24 09:50:49;;;;;;;7.33;5.60;;;6.90;48.20;;;;;;5450267;26;21337;-61
2024/04/24 09:53:19;;;;;;;9.50;5.10;;;7.00;47.90;;;;;;5447261;26;20459;-60
2024/04/24 09:56:16;;;;;;;11.33;5.70;;;7.10;47.30;;;;;;5427497;26;20649;-61
2024/04/24 09:58:45;;;;;;;5.87;5.10;;;7.10;47.40;;;;;;5460116;26;20504;-61
2024/04/24 10:01:15;;;;;;;16.97;6.37;;;7.10;47.60;;;;;;5455284;26;20468;-60
2024/04/24 10:03:41;;;;;;;8.10;5.80;;;7.10;48.20;;;;;;5454717;26;20589;-61
2024/04/24 10:06:11;;;;;;;6.00;4.90;;;7.10;48.10;;;;;;5474372;26;20519;-60
2024/04/24 10:08:40;;;;;;;10.33;5.40;;;7.00;47.00;;;;;;5461922;26;20444;-60
2024/04/24 10:11:07;;;;;;;6.77;5.10;;;6.80;47.30;;;;;;5461464;26;20445;-60
2024/04/24 10:13:37;;;;;;;5.23;4.73;;;6.70;47.50;;;;;;5464281;26;20583;-61
2024/04/24 10:16:04;;;;;;;7.30;5.30;;;6.50;47.70;;;;;;5461963;26;20509;-61
2024/04/24 10:18:30;;;;;;;6.17;4.50;;;6.40;47.70;;;;;;5468703;26;20469;-61
2024/04/24 10:20:56;;;;;;;6.93;5.10;;;6.40;48.20;;;;;;5449586;26;20509;-61
2024/04/24 10:23:27;;;;;;;7.73;5.00;;;6.30;48.30;;;;;;5457237;26;20463;-61
2024/04/24 10:25:55;;;;;;;5.13;4.30;;;6.30;49.00;;;;;;5448705;26;20518;-61
2024/04/24 10:28:23;;;;;;;9.00;6.10;;;6.30;49.30;;;;;;5455161;26;20456;-61
2024/04/24 10:30:49;;;;;;;5.77;4.97;;;6.30;49.20;;;;;;5421908;26;20921;-62
2024/04/24 10:33:16;;;;;;;8.20;4.97;;;6.20;48.60;;;;;;5421229;26;20456;-63
2024/04/24 10:35:42;;;;;;;6.17;4.90;;;6.10;48.40;;;;;;5452249;26;20520;-63
2024/04/24 10:38:07;;;;;;;6.80;5.83;;;6.00;48.50;;;;;;5466097;26;20509;-62
2024/04/24 10:40:34;;;;;;;7.10;5.27;;;6.00;48.70;;;;;;5449798;26;20509;-63
2024/04/24 10:43:01;;;;;;;13.93;6.50;;;5.90;49.10;;;;;;5413305;26;20247;-60
2024/04/24 10:45:28;;;;;;;11.20;6.20;;;5.80;49.30;;;;;;5449684;26;20511;-60
2024/04/24 10:47:54;;;;;;;8.70;5.50;;;5.80;50.20;;;;;;5453122;26;20573;-63
2024/04/24 10:50:19;;;;;;;6.70;5.13;;;5.80;50.40;;;;;;5436255;26;20460;-59
2024/04/24 10:52:52;;;;;;;9.00;6.00;;;5.80;49.70;;;;;;5453372;26;21550;-62
2024/04/24 10:55:18;;;;;;;7.20;5.40;;;5.70;49.50;;;;;;5458571;26;20646;-63
2024/04/24 10:57:52;;;;;;;9.50;5.40;;;5.70;49.50;;;;;;5457981;26;20456;-63
2024/04/24 11:00:22;;;;;;;8.70;5.70;;;5.70;49.70;;;;;;5445530;26;20576;-63
2024/04/24 11:02:50;;;;;;;8.70;5.43;;;5.70;50.20;;;;;;5430768;26;20469;-63
2024/04/24 11:05:21;;;;;;;8.27;5.53;;;5.70;50.30;;;;;;5456173;26;20512;-63
2024/04/24 11:08:00;;;;;;;8.67;5.80;;;5.80;50.60;;;;;;5443266;26;20520;-64
2024/04/24 11:10:26;;;;;;;7.97;5.67;;;5.70;50.70;;;;;;5452336;26;20458;-64
2024/04/24 11:12:51;;;;;;;8.30;6.07;;;5.70;51.20;;;;;;5451357;26;20464;-64
2024/04/24 11:15:22;;;;;;;7.50;5.97;;;5.80;51.60;;;;;;5461488;26;21105;-63
2024/04/24 11:17:48;;;;;;;13.93;6.00;;;5.80;52.30;;;;;;5455899;26;20258;-63
2024/04/24 11:20:18;;;;;;;8.17;5.70;;;5.80;51.40;;;;;;5449568;26;20544;-62
2024/04/24 11:22:44;;;;;;;7.60;5.70;;;5.90;51.80;;;;;;5451483;26;20609;-63
2024/04/24 11:25:11;;;;;;;8.40;6.00;;;5.90;52.40;;;;;;5451125;26;20481;-63
2024/04/24 11:27:37;;;;;;;12.43;6.53;;;5.90;51.90;;;;;;5414376;26;20228;-62
2024/04/24 11:30:12;;;;;;;10.07;6.50;;;5.90;52.80;;;;;;5460281;26;20455;-59
2024/04/24 11:32:39;;;;;;;10.57;6.10;;;6.00;53.40;;;;;;5458989;26;20534;-60
2024/04/24 11:35:06;;;;;;;9.97;5.53;;;6.10;53.10;;;;;;5454960;26;20998;-59
2024/04/24 11:37:33;;;;;;;10.43;6.27;;;6.10;52.60;;;;;;5442139;26;21197;-60
2024/04/24 11:39:59;;;;;;;9.90;6.00;;;6.20;52.30;;;;;;5456093;26;20594;-59
2024/04/24 11:42:25;;;;;;;9.33;5.13;;;6.20;52.20;;;;;;5452758;26;20521;-61
2024/04/24 11:44:51;;;;;;;10.63;6.40;;;6.20;51.20;;;;;;5467989;26;20460;-61
2024/04/24 11:47:19;;;;;;;13.30;6.90;;;6.10;51.20;;;;;;5461321;26;20589;-59
2024/04/24 11:49:52;;;;;;;9.23;5.77;;;6.10;51.30;;;;;;5462884;26;20512;-59
2024/04/24 11:52:18;;;;;;;7.07;5.77;;;6.00;51.70;;;;;;5455643;26;20449;-59
2024/04/24 11:54:48;;;;;;;7.73;5.70;;;6.00;51.80;;;;;;5463851;26;20569;-59
2024/04/24 11:57:15;;;;;;;8.40;6.30;;;6.00;52.20;;;;;;5451969;26;20266;-59
2024/04/24 11:59:48;;;;;;;6.03;5.43;;;6.00;52.50;;;;;;5450597;26;20473;-59
2024/04/24 12:02:17;;;;;;;9.43;7.00;;;6.00;52.60;;;;;;5451807;26;20460;-59
2024/04/24 12:04:44;;;;;;;11.27;6.63;;;6.00;52.20;;;;;;5461457;26;20543;-59
2024/04/24 12:07:10;;;;;;;9.20;6.60;;;6.00;52.20;;;;;;5457179;26;20945;-59
2024/04/24 12:09:40;;;;;;;8.70;6.00;;;6.00;52.50;;;;;;5419593;26;21002;-59
2024/04/24 12:12:06;;;;;;;8.00;6.50;;;5.90;52.90;;;;;;5453016;26;20224;-59
2024/04/24 12:14:35;;;;;;;10.77;6.40;;;5.90;52.80;;;;;;5464592;26;20507;-59
2024/04/24 12:17:01;;;;;;;8.87;6.53;;;5.90;52.60;;;;;;5452153;26;20576;-59
2024/04/24 12:19:27;;;;;;;9.17;6.70;;;5.90;53.00;;;;;;5459314;26;20457;-59
2024/04/24 12:21:53;;;;;;;10.70;6.77;;;5.90;53.40;;;;;;5447329;26;20465;-59
2024/04/24 12:24:18;;;;;;;10.13;6.70;;;6.00;53.70;;;;;;5454599;26;20231;-59
2024/04/24 12:26:44;;;;;;;9.27;6.63;;;6.10;53.40;;;;;;5438223;26;20224;-59
2024/04/24 12:29:10;;;;;;;8.00;6.23;;;6.20;53.30;;;;;;5466867;26;20266;-59
2024/04/24 12:31:39;;;;;;;10.27;6.53;;;6.30;53.40;;;;;;5467732;26;20449;-59
2024/04/24 12:34:05;;;;;;;12.40;7.83;;;6.50;54.00;;;;;;5436375;26;20315;-59
2024/04/24 12:36:35;;;;;;;11.30;7.30;;;6.70;53.70;;;;;;5465672;26;20460;-59
2024/04/24 12:39:01;;;;;;;10.60;7.27;;;6.80;52.90;;;;;;5462335;26;20341;-60
2024/04/24 12:41:27;;;;;;;9.37;6.50;;;6.80;52.30;;;;;;5461522;26;20477;-59
2024/04/24 12:43:54;;;;;;;9.57;6.40;;;6.80;52.60;;;;;;5464651;26;21006;-59
2024/04/24 12:46:19;;;;;;;10.27;6.70;;;6.80;52.40;;;;;;5459542;26;20240;-59